createdAt,value
2018-09-08T00:07:28.310Z,12.4
2018-09-08T00:17:41.900Z,12.4
2018-09-08T00:28:05.859Z,12.3
2018-09-08T00:38:19.625Z,12.3
2018-09-08T00:49:04.650Z,12.1
2018-09-08T01:09:56.105Z,12.0
2018-09-08T01:20:44.617Z,11.8
2018-09-08T01:30:58.842Z,11.8
2018-09-08T01:41:12.839Z,11.7
2018-09-08T01:51:27.171Z,11.6
2018-09-08T02:02:12.240Z,11.4
2018-09-08T02:12:28.556Z,11.4
2018-09-08T02:22:42.022Z,11.3
2018-09-08T02:32:55.427Z,11.2
2018-09-08T02:43:41.100Z,11.0
2018-09-08T02:54:26.907Z,10.9
2018-09-08T03:04:41.113Z,10.9
2018-09-08T03:14:55.164Z,10.8
2018-09-08T03:25:06.459Z,10.7
2018-09-08T03:35:20.033Z,10.6
2018-09-08T03:45:34.304Z,10.6
2018-09-08T03:55:48.194Z,10.5
2018-09-08T04:06:02.514Z,10.5
2018-09-08T04:16:16.738Z,10.4
2018-09-08T04:26:30.718Z,10.4
2018-09-08T04:36:44.222Z,10.4
2018-09-08T04:46:58.385Z,10.3
2018-09-08T04:57:44.178Z,10.2
2018-09-08T05:07:55.357Z,10.2
2018-09-08T05:18:09.759Z,10.2
2018-09-08T05:28:24.581Z,10.2
2018-09-08T05:38:35.775Z,10.2
2018-09-08T05:48:50.331Z,10.2
2018-09-08T05:59:02.206Z,10.2
2018-09-08T06:09:16.377Z,10.2
2018-09-08T06:19:29.701Z,10.3
2018-09-08T06:29:41.160Z,10.3
2018-09-08T06:40:46.741Z,10.5
2018-09-08T06:51:23.163Z,10.5
2018-09-08T07:01:36.989Z,10.8
2018-09-08T07:12:22.229Z,11.8
2018-09-08T07:23:07.586Z,12.6
2018-09-08T07:33:52.626Z,13.3
2018-09-08T07:44:07.080Z,13.3
2018-09-08T07:54:21.530Z,14.4
2018-09-08T08:05:06.738Z,16.6
2018-09-08T08:15:20.059Z,16.6
2018-09-08T08:25:34.231Z,18.6
2018-09-08T08:36:25.205Z,22.8
2018-09-08T08:46:39.594Z,22.9
2018-09-08T08:56:54.345Z,24.4
2018-09-08T09:07:08.284Z,25.3
2018-09-08T09:17:53.027Z,26.3
2018-09-08T09:28:10.742Z,26.3
2018-09-08T09:38:25.224Z,26.6
2018-09-08T09:48:39.234Z,26.9
2018-09-08T10:00:16.237Z,27.0
2018-09-08T10:10:30.374Z,27.0
2018-09-08T10:20:44.278Z,26.7
2018-09-08T10:30:58.355Z,26.3
2018-09-08T10:41:12.889Z,26.0
2018-09-08T10:51:27.005Z,25.7
2018-09-08T11:01:40.847Z,25.3
2018-09-08T11:12:35.859Z,24.2
2018-09-08T11:22:49.990Z,24.2
2018-09-08T11:33:04.495Z,24.1
2018-09-08T11:43:18.592Z,24.0
2018-09-08T11:53:42.083Z,23.9
2018-09-08T12:03:54.233Z,23.5
2018-09-08T12:14:08.592Z,23.6
2018-09-08T12:24:23.185Z,23.8
2018-09-08T12:34:35.274Z,23.9
2018-09-08T12:44:51.728Z,24.1
2018-09-08T13:05:22.733Z,25.1
2018-09-08T13:16:09.799Z,25.1
2018-09-08T13:26:55.472Z,25.0
2018-09-08T13:37:08.806Z,25.0
2018-09-08T13:47:54.287Z,25.2
2018-09-08T13:58:15.443Z,25.2
2018-09-08T14:08:29.225Z,25.4
2018-09-08T14:18:43.445Z,25.7
2018-09-08T14:28:57.480Z,25.7
2018-09-08T14:39:22.617Z,25.4
2018-09-08T14:49:36.995Z,25.1
2018-09-08T14:59:56.009Z,24.6
2018-09-08T15:10:11.327Z,24.2
2018-09-08T15:20:32.777Z,23.8
2018-09-08T15:31:18.811Z,23.1
2018-09-08T15:41:33.186Z,23.1
2018-09-08T15:51:49.150Z,22.7
2018-09-08T16:02:02.784Z,22.4
2018-09-08T16:12:14.387Z,22.0
2018-09-08T16:22:59.598Z,21.5
2018-09-08T16:33:44.359Z,21.2
2018-09-08T16:43:57.849Z,21.2
2018-09-08T16:54:12.756Z,21.0
2018-09-08T17:04:26.760Z,20.7
2018-09-08T17:25:28.510Z,20.2
2018-09-08T17:35:42.366Z,20.0
2018-09-08T17:45:55.732Z,19.8
2018-09-08T17:56:10.391Z,19.5
2018-09-08T18:06:32.437Z,19.2
2018-09-08T18:18:00.736Z,18.8
2018-09-08T18:28:14.305Z,18.8
2018-09-08T18:38:29.774Z,18.5
2018-09-08T18:48:41.490Z,18.3
2018-09-08T18:58:55.738Z,18.0
2018-09-08T19:09:10.358Z,17.8
2018-09-08T19:20:04.739Z,17.4
2018-09-08T19:31:36.450Z,17.3
2018-09-08T19:41:50.532Z,17.2
2018-09-08T19:52:04.341Z,17.1
2018-09-08T20:02:49.076Z,16.7
2018-09-08T20:13:02.332Z,16.7
2018-09-08T20:23:16.431Z,16.5
2018-09-08T20:33:29.877Z,16.4
2018-09-08T20:43:45.422Z,16.2
2018-09-08T20:53:59.435Z,16.1
2018-09-08T21:04:13.354Z,16.0
2018-09-08T21:14:27.507Z,15.8
2018-09-08T21:24:40.694Z,15.7
2018-09-08T21:34:53.911Z,15.7
2018-09-08T21:46:00.290Z,15.5
2018-09-08T21:56:14.228Z,15.5
2018-09-08T22:06:28.639Z,15.4
2018-09-08T22:16:42.462Z,15.2
2018-09-08T22:26:56.712Z,15.1
2018-09-08T22:37:11.119Z,15.0
2018-09-08T22:47:24.957Z,14.9
2018-09-08T22:57:39.270Z,14.8
2018-09-08T23:07:53.166Z,14.7
2018-09-08T23:18:38.248Z,14.4
2018-09-08T23:28:52.475Z,14.3
2018-09-08T23:39:06.767Z,14.2
2018-09-08T23:49:20.825Z,14.0
2018-09-08T23:59:34.863Z,13.8
